Time;durP1;ratioP1;P1;durP2;ratioP2;P2;SDS_P1;SDS_P2;PMS_P1;PMS_P2;Temp;Humidity;BMP_temperature;BMP_pressure;BME280_temperature;BME280_humidity;BME280_pressure;Samples;Min_cycle;Max_cycle;Signal;HPM_P1;HPM_P2
2022/02/14 00:01:21;;;;;;;45.15;25.63;;;;;;;2.42;78.46;101142.38;5109583;28;20035;-68
2022/02/14 00:03:47;;;;;;;43.22;24.73;;;;;;;2.36;78.20;101130.22;5108719;28;20027;-68
2022/02/14 00:06:12;;;;;;;47.47;25.92;;;;;;;2.39;78.14;101135.38;5109756;28;20042;-68
2022/02/14 00:08:38;;;;;;;47.42;26.92;;;;;;;2.38;78.33;101136.31;5108298;28;20543;-66
2022/02/14 00:11:03;;;;;;;48.92;25.40;;;;;;;2.38;78.77;101132.81;5109671;28;20428;-68
2022/02/14 00:13:30;;;;;;;47.47;26.35;;;;;;;2.27;78.93;101113.88;5109412;28;20028;-67
2022/02/14 00:15:56;;;;;;;44.63;25.42;;;;;;;2.35;79.18;101130.28;5109657;28;20034;-69
2022/02/14 00:18:21;;;;;;;53.03;26.30;;;;;;;2.28;79.08;101115.59;5112110;28;20393;-68
2022/02/14 00:20:47;;;;;;;48.05;26.58;;;;;;;2.21;79.20;101096.47;5112129;28;20398;-67
2022/02/14 00:23:12;;;;;;;43.03;25.17;;;;;;;2.32;79.16;101112.75;5113639;27;20401;-69
2022/02/14 00:25:38;;;;;;;46.25;25.30;;;;;;;2.26;79.01;101107.72;5111942;27;20494;-68
2022/02/14 00:28:03;;;;;;;44.97;25.00;;;;;;;2.25;79.08;101108.66;5113297;28;20032;-68
2022/02/14 00:30:30;;;;;;;44.25;25.08;;;;;;;2.27;79.12;101105.94;5113092;28;20026;-68
2022/02/14 00:32:56;;;;;;;42.85;24.75;;;;;;;2.20;79.30;101091.25;5113307;28;20047;-68
2022/02/14 00:35:21;;;;;;;44.85;25.35;;;;;;;2.28;79.64;101099.72;5111858;27;20067;-67
2022/02/14 00:37:48;;;;;;;44.72;23.00;;;;;;;2.30;79.15;101109.28;5113498;28;20031;-68
2022/02/14 00:40:14;;;;;;;45.90;22.73;;;;;;;2.23;79.19;101086.66;5112947;28;20031;-67
2022/02/14 00:42:39;;;;;;;41.42;22.98;;;;;;;2.24;78.86;101083.13;5112785;28;20088;-68
2022/02/14 00:45:05;;;;;;;43.65;24.35;;;;;;;2.29;78.75;101098.81;5113009;28;20386;-68
2022/02/14 00:47:31;;;;;;;41.45;21.58;;;;;;;2.27;78.45;101092.72;5112851;28;20097;-69
2022/02/14 00:49:57;;;;;;;45.72;23.30;;;;;;;2.27;78.75;101093.56;5112867;28;20028;-68
2022/02/14 00:52:22;;;;;;;40.50;23.38;;;;;;;2.24;78.91;101093.69;5112927;28;20035;-68
2022/02/14 00:54:48;;;;;;;40.58;23.55;;;;;;;2.23;78.86;101094.59;5113195;28;20501;-68
2022/02/14 00:57:13;;;;;;;38.55;22.90;;;;;;;2.24;79.03;101098.13;5111617;28;20061;-68
2022/02/14 00:59:39;;;;;;;40.78;21.83;;;;;;;2.19;78.54;101079.78;5112928;28;20024;-69
2022/02/14 01:02:04;;;;;;;40.60;22.92;;;;;;;2.18;78.42;101077.19;5112540;28;20034;-69
2022/02/14 01:04:33;;;;;;;39.97;22.98;;;;;;;2.17;78.65;101070.19;5112338;28;20027;-69
2022/02/14 01:06:58;;;;;;;39.90;23.17;;;;;;;2.21;78.51;101079.72;5112804;28;20522;-68
2022/02/14 01:09:24;;;;;;;41.13;21.67;;;;;;;2.21;78.81;101092.97;5112487;28;20149;-69
2022/02/14 01:11:49;;;;;;;44.15;23.30;;;;;;;2.16;78.11;101076.44;5112687;28;20016;-68
2022/02/14 01:14:15;;;;;;;42.80;22.73;;;;;;;2.09;78.59;101069.63;5112180;28;20102;-69
2022/02/14 01:16:40;;;;;;;44.03;23.08;;;;;;;2.10;78.26;101074.88;5112227;28;20031;-69
2022/02/14 01:19:06;;;;;;;42.08;22.38;;;;;;;1.96;78.75;101056.06;5112269;28;20023;-67
2022/02/14 01:21:31;;;;;;;42.75;22.83;;;;;;;1.98;78.59;101070.09;5112213;28;20051;-69
2022/02/14 01:23:57;;;;;;;42.63;22.80;;;;;;;2.00;79.04;101062.94;5112442;28;20035;-68
2022/02/14 01:26:22;;;;;;;40.63;23.02;;;;;;;1.99;78.44;101065.66;5112633;28;20132;-68
2022/02/14 01:28:48;;;;;;;42.10;22.45;;;;;;;2.00;78.80;101073.53;5112123;28;20032;-68
2022/02/14 01:31:13;;;;;;;40.22;22.15;;;;;;;1.92;78.92;101065.06;5110749;28;20031;-69
2022/02/14 01:33:39;;;;;;;40.95;23.20;;;;;;;1.84;78.78;101051.25;5111919;28;20428;-69
2022/02/14 01:36:04;;;;;;;44.03;21.63;;;;;;;1.81;78.75;101048.75;5112175;28;20440;-68
2022/02/14 01:38:30;;;;;;;44.10;21.75;;;;;;;1.83;78.70;101048.69;5111933;28;20047;-68
2022/02/14 01:40:55;;;;;;;41.83;22.30;;;;;;;1.78;79.31;101053.31;5111784;28;20105;-68
2022/02/14 01:43:21;;;;;;;42.50;22.30;;;;;;;1.78;78.94;101061.25;5112014;28;20034;-70
2022/02/14 01:45:46;;;;;;;40.13;21.80;;;;;;;1.68;79.17;101036.94;5111763;28;20119;-68
2022/02/14 01:48:13;;;;;;;42.83;23.88;;;;;;;1.66;79.43;101041.44;5111678;28;20110;-68
2022/02/14 01:50:38;;;;;;;37.15;20.50;;;;;;;1.60;79.84;101039.03;5110299;28;20084;-68
2022/02/14 01:53:04;;;;;;;44.28;22.67;;;;;;;1.55;80.08;101033.06;5111755;27;20031;-69
2022/02/14 01:55:32;;;;;;;42.10;23.25;;;;;;;1.61;79.91;101047.84;5110371;28;20101;-67
2022/02/14 01:58:02;;;;;;;46.38;24.00;;;;;;;1.55;80.16;101037.50;5111582;28;20027;-68
2022/02/14 02:00:29;;;;;;;44.70;23.13;;;;;;;1.47;80.38;101019.31;5111700;28;20118;-68
2022/02/14 02:02:55;;;;;;;41.03;21.80;;;;;;;1.53;79.90;101027.00;5109928;28;20031;-67
2022/02/14 02:05:21;;;;;;;41.90;22.40;;;;;;;1.53;80.40;101034.06;5111755;28;20020;-68
2022/02/14 02:07:48;;;;;;;44.03;23.38;;;;;;;1.50;79.92;101016.56;5111636;28;20072;-69
2022/02/14 02:10:13;;;;;;;41.10;21.75;;;;;;;1.41;80.24;101008.97;5111778;28;20447;-67
2022/02/14 02:12:49;;;;;;;43.00;22.73;;;;;;;1.45;80.47;101007.09;5111484;28;20119;-67
2022/02/14 02:15:14;;;;;;;39.67;21.77;;;;;;;1.32;80.65;100988.19;5111578;28;20062;-68
2022/02/14 02:17:40;;;;;;;42.20;22.38;;;;;;;1.40;81.08;101004.63;5110103;28;20051;-67
2022/02/14 02:20:09;;;;;;;41.22;21.05;;;;;;;1.28;80.95;100989.25;5110258;28;20073;-68
2022/02/14 02:22:34;;;;;;;39.58;21.15;;;;;;;1.26;80.71;100985.78;5111356;28;20047;-68
2022/02/14 02:25:00;;;;;;;42.67;21.75;;;;;;;1.29;80.83;100998.03;5111650;28;20082;-67
2022/02/14 02:27:27;;;;;;;37.53;21.65;;;;;;;1.28;80.93;100991.00;5111296;28;20039;-69
2022/02/14 02:29:55;;;;;;;38.95;21.52;;;;;;;1.33;80.81;101005.78;5110183;27;20547;-68
2022/02/14 02:32:21;;;;;;;40.63;20.45;;;;;;;1.32;80.41;101000.56;5111587;28;20039;-68
2022/02/14 02:34:46;;;;;;;37.78;20.55;;;;;;;1.32;80.60;100996.13;5109923;28;20024;-67
2022/02/14 02:37:14;;;;;;;38.33;20.60;;;;;;;1.23;80.95;100987.72;5111200;28;20038;-68
2022/02/14 02:39:41;;;;;;;39.35;21.00;;;;;;;1.24;80.94;100987.66;5110677;27;20035;-68
2022/02/14 02:42:08;;;;;;;37.70;20.13;;;;;;;1.19;81.13;100986.13;5110651;28;20422;-68
2022/02/14 02:44:35;;;;;;;40.28;20.95;;;;;;;1.15;81.44;100989.78;5110951;28;20111;-68
2022/02/14 02:47:03;;;;;;;40.08;21.42;;;;;;;1.06;81.38;100974.31;5111140;28;20031;-67
2022/02/14 02:49:28;;;;;;;39.90;21.33;;;;;;;1.11;81.79;100977.63;5111062;28;20023;-67
2022/02/14 02:51:54;;;;;;;41.35;21.08;;;;;;;1.13;81.77;100983.72;5111070;28;20027;-69
2022/02/14 02:54:21;;;;;;;35.80;19.80;;;;;;;1.02;81.55;100962.13;5111100;28;20024;-67
2022/02/14 02:56:48;;;;;;;38.35;20.52;;;;;;;1.04;81.80;100970.84;5110992;28;20035;-68
2022/02/14 02:59:14;;;;;;;41.35;20.13;;;;;;;1.04;81.48;100969.09;5110927;28;20039;-68
2022/02/14 03:01:41;;;;;;;34.60;19.55;;;;;;;1.08;81.93;100978.59;5110662;28;20096;-68
2022/02/14 03:04:08;;;;;;;37.38;20.90;;;;;;;0.95;82.33;100964.16;5111029;28;20238;-69
2022/02/14 03:06:34;;;;;;;39.38;21.23;;;;;;;1.00;82.29;100967.47;5112086;28;20019;-75
2022/02/14 03:09:00;;;;;;;40.63;20.35;;;;;;;0.98;82.26;100971.09;5112448;28;20059;-76
2022/02/14 03:11:26;;;;;;;39.45;20.50;;;;;;;0.91;82.63;100965.19;5112042;28;20049;-76
2022/02/14 03:13:53;;;;;;;37.33;19.73;;;;;;;0.92;82.74;100966.03;5112606;28;20120;-76
2022/02/14 03:16:18;;;;;;;39.33;20.08;;;;;;;0.85;82.75;100949.59;5112071;28;20375;-76
2022/02/14 03:18:44;;;;;;;33.85;18.83;;;;;;;0.90;82.89;100963.44;5112261;27;20023;-75
2022/02/14 03:21:11;;;;;;;30.33;18.45;;;;;;;0.88;82.93;100962.66;5112249;28;20023;-75
2022/02/14 03:23:37;;;;;;;40.95;19.02;;;;;;;0.87;83.19;100968.00;5112045;28;20050;-76
2022/02/14 03:26:03;;;;;;;35.03;20.23;;;;;;;0.90;83.07;100965.25;5111986;28;20498;-75
2022/02/14 03:28:29;;;;;;;31.30;17.60;;;;;;;0.90;83.60;100970.53;5112006;28;20027;-76
2022/02/14 03:30:55;;;;;;;36.15;20.52;;;;;;;0.87;83.42;100960.91;5111985;28;20067;-76
2022/02/14 03:33:21;;;;;;;33.38;18.05;;;;;;;0.76;83.51;100944.66;5110655;28;20023;-75
2022/02/14 03:35:46;;;;;;;36.08;19.27;;;;;;;0.87;83.93;100958.28;5111987;28;20028;-75
2022/02/14 03:38:13;;;;;;;37.72;19.80;;;;;;;0.85;83.42;100961.91;5111750;28;20102;-75
2022/02/14 03:40:40;;;;;;;36.95;20.10;;;;;;;0.86;83.58;100960.97;5111326;28;20544;-75
2022/02/14 03:43:10;;;;;;;40.65;21.30;;;;;;;0.84;83.62;100953.13;5111503;28;20041;-75
2022/02/14 03:45:37;;;;;;;31.20;17.77;;;;;;;0.84;83.70;100955.75;5111269;28;20049;-76
2022/02/14 03:48:03;;;;;;;36.83;19.13;;;;;;;0.78;83.78;100940.19;5111114;28;20015;-75
2022/02/14 03:50:28;;;;;;;33.72;18.63;;;;;;;0.80;83.82;100943.59;5111130;28;20077;-75
2022/02/14 03:52:54;;;;;;;32.08;17.63;;;;;;;0.75;83.41;100939.41;5113613;28;20015;-74
2022/02/14 03:55:22;;;;;;;30.83;18.42;;;;;;;0.77;83.78;100943.72;5115925;27;20020;-75
2022/02/14 03:57:50;;;;;;;31.25;16.77;;;;;;;0.74;83.96;100946.47;5115910;28;20510;-75
2022/02/14 04:00:17;;;;;;;31.63;18.02;;;;;;;0.79;84.09;100956.84;5115652;28;20485;-75
2022/02/14 04:02:43;;;;;;;39.90;18.52;;;;;;;0.75;83.44;100940.28;5114182;28;20034;-75
2022/02/14 04:05:10;;;;;;;33.22;19.13;;;;;;;0.78;83.68;100953.38;5115478;28;20027;-75
2022/02/14 04:07:36;;;;;;;35.20;18.30;;;;;;;0.77;83.67;100942.88;5115642;28;20051;-75
2022/02/14 04:10:02;;;;;;;35.72;19.55;;;;;;;0.74;83.86;100941.19;5113659;28;20061;-75
2022/02/14 04:12:28;;;;;;;33.55;18.50;;;;;;;0.73;83.96;100933.31;5115523;28;20031;-74
2022/02/14 04:14:53;;;;;;;35.10;20.70;;;;;;;0.69;84.10;100923.81;5115654;27;20478;-75
2022/02/14 04:17:19;;;;;;;34.55;19.60;;;;;;;0.74;83.99;100935.91;5114028;28;20478;-76
2022/02/14 04:19:44;;;;;;;33.00;19.67;;;;;;;0.72;83.47;100939.53;5114985;28;20035;-75
2022/02/14 04:22:09;;;;;;;34.60;19.67;;;;;;;0.61;83.65;100923.25;5113495;28;20015;-75
2022/02/14 04:24:35;;;;;;;33.03;17.77;;;;;;;0.65;84.10;100936.28;5114960;28;20037;-75
2022/02/14 04:27:00;;;;;;;32.83;17.83;;;;;;;0.63;84.33;100934.59;5115276;28;20027;-74
2022/02/14 04:29:26;;;;;;;36.60;20.00;;;;;;;0.61;84.55;100934.66;5115279;28;20019;-75
2022/02/14 04:31:51;;;;;;;30.05;17.67;;;;;;;0.60;85.04;100925.03;5113835;28;20031;-74
2022/02/14 04:34:20;;;;;;;36.63;19.95;;;;;;;0.53;85.12;100920.91;5115169;28;20023;-76
2022/02/14 04:36:46;;;;;;;40.70;21.83;;;;;;;0.41;85.21;100916.06;5114786;28;20102;-75
2022/02/14 04:39:12;;;;;;;46.55;21.83;;;;;;;0.50;85.51;100928.94;5114877;28;20547;-76
2022/02/14 04:41:38;;;;;;;39.15;18.95;;;;;;;0.46;85.70;100924.69;5114502;28;20118;-76
2022/02/14 04:44:04;;;;;;;41.03;21.08;;;;;;;0.44;85.66;100921.25;5113629;28;20068;-75
2022/02/14 04:46:29;;;;;;;42.40;19.92;;;;;;;0.46;86.00;100923.81;5114719;28;20053;-75
2022/02/14 04:48:55;;;;;;;39.38;19.30;;;;;;;0.46;86.04;100942.28;5114966;28;20035;-75
2022/02/14 04:51:20;;;;;;;40.95;19.95;;;;;;;0.49;85.67;100923.72;5114748;28;20043;-75
2022/02/14 04:53:45;;;;;;;38.20;19.52;;;;;;;0.47;85.72;100926.41;5114512;28;20052;-75
2022/02/14 04:56:11;;;;;;;33.25;17.63;;;;;;;0.45;85.67;100925.59;5114583;28;20116;-76
2022/02/14 04:58:36;;;;;;;37.78;19.13;;;;;;;0.46;85.71;100926.47;5114450;28;20032;-76
2022/02/14 05:01:02;;;;;;;39.38;18.95;;;;;;;0.40;85.81;100922.28;5114379;28;20028;-76
2022/02/14 05:03:27;;;;;;;40.33;19.60;;;;;;;0.27;85.55;100894.63;5113834;28;20024;-74
2022/02/14 05:05:53;;;;;;;39.53;20.77;;;;;;;0.32;85.56;100920.84;5114498;28;20031;-74
2022/02/14 05:08:18;;;;;;;38.72;18.77;;;;;;;0.35;85.65;100929.47;5114064;28;20053;-75
2022/02/14 05:10:43;;;;;;;36.35;18.88;;;;;;;0.30;85.73;100923.53;5112529;28;20122;-76
2022/02/14 05:13:09;;;;;;;38.00;18.55;;;;;;;0.33;85.71;100927.81;5112624;28;20020;-75
2022/02/14 05:15:34;;;;;;;37.80;18.85;;;;;;;0.27;85.93;100931.56;5113793;28;20497;-76
2022/02/14 05:18:00;;;;;;;31.13;18.00;;;;;;;0.18;86.20;100933.63;5112093;28;20034;-75
2022/02/14 05:20:25;;;;;;;29.90;16.85;;;;;;;0.20;86.18;100947.66;5116335;28;20085;-74
2022/02/14 05:22:51;;;;;;;35.92;19.83;;;;;;;0.13;86.45;100936.47;5123423;28;20119;-75
2022/02/14 05:25:16;;;;;;;32.95;17.90;;;;;;;0.08;86.56;100941.03;5114014;28;20024;-75
2022/02/14 05:27:42;;;;;;;32.08;16.70;;;;;;;0.14;86.73;100958.41;5113771;28;20031;-75
2022/02/14 05:30:08;;;;;;;32.67;17.95;;;;;;;0.10;87.37;100956.81;5112611;28;20015;-68
2022/02/14 05:32:33;;;;;;;33.78;18.02;;;;;;;0.10;87.54;100957.66;5112312;28;20106;-68
2022/02/14 05:34:59;;;;;;;32.10;17.38;;;;;;;0.06;87.53;100961.31;5112546;28;20041;-68
2022/02/14 05:37:24;;;;;;;33.55;18.45;;;;;;;0.08;87.58;100964.75;5112569;28;20072;-69
2022/02/14 05:39:50;;;;;;;34.45;18.75;;;;;;;0.06;88.02;100958.66;5111538;28;20471;-69
2022/02/14 05:42:16;;;;;;;36.75;19.15;;;;;;;0.03;88.12;100950.88;5112066;28;20040;-69
2022/02/14 05:44:42;;;;;;;37.03;18.90;;;;;;;0.08;88.43;100962.13;5112151;28;20023;-67
2022/02/14 05:47:08;;;;;;;40.60;19.38;;;;;;;0.03;87.95;100957.00;5112257;28;20024;-68
2022/02/14 05:49:33;;;;;;;34.28;18.10;;;;;;;0.00;88.20;100964.19;5112097;28;20042;-68
2022/02/14 05:51:59;;;;;;;37.00;18.70;;;;;;;0.03;88.16;100966.69;5112066;28;20497;-69
2022/02/14 05:54:24;;;;;;;32.88;18.63;;;;;;;-0.08;88.21;100953.91;5110926;28;20478;-68
2022/02/14 05:56:50;;;;;;;45.28;20.15;;;;;;;-0.10;88.71;100954.84;5112217;28;20092;-68
2022/02/14 05:59:15;;;;;;;36.88;18.23;;;;;;;-0.02;88.99;100973.91;5112094;28;20470;-68
2022/02/14 06:01:41;;;;;;;37.65;19.20;;;;;;;-0.10;89.07;100961.00;5111772;28;20403;-69
2022/02/14 06:04:07;;;;;;;41.72;20.17;;;;;;;-0.13;89.39;100954.94;5111859;28;20435;-69
2022/02/14 06:06:32;;;;;;;35.47;19.10;;;;;;;-0.07;89.71;100962.66;5110253;28;20114;-68
2022/02/14 06:08:57;;;;;;;38.72;19.70;;;;;;;-0.07;89.58;100954.75;5112146;28;20019;-68
2022/02/14 06:11:23;;;;;;;34.47;18.50;;;;;;;-0.13;89.85;100945.28;5111800;28;20043;-68
2022/02/14 06:13:48;;;;;;;38.95;19.42;;;;;;;-0.10;89.69;100950.44;5111694;28;20036;-68
2022/02/14 06:16:14;;;;;;;37.70;19.08;;;;;;;-0.06;89.68;100956.47;5111119;28;20031;-75
2022/02/14 06:18:40;;;;;;;33.83;18.83;;;;;;;0.05;89.96;100951.69;5112529;28;20387;-74
2022/02/14 06:21:05;;;;;;;37.58;19.52;;;;;;;0.08;89.86;100954.22;5111211;28;20035;-74
2022/02/14 06:23:31;;;;;;;35.22;18.63;;;;;;;0.08;89.48;100955.97;5112651;28;20095;-74
2022/02/14 06:25:57;;;;;;;35.97;19.05;;;;;;;0.13;89.71;100954.06;5113013;28;20031;-75
2022/02/14 06:28:22;;;;;;;38.35;18.88;;;;;;;0.12;89.94;100945.28;5111416;28;20027;-75
2022/02/14 06:30:47;;;;;;;33.30;18.10;;;;;;;0.14;90.01;100950.50;5111525;28;20065;-75
2022/02/14 06:33:14;;;;;;;36.20;18.15;;;;;;;0.16;90.00;100940.78;5112629;28;20055;-75
2022/02/14 06:35:40;;;;;;;37.70;17.58;;;;;;;0.17;90.22;100935.44;5111548;28;20027;-75
2022/02/14 06:38:06;;;;;;;39.85;19.02;;;;;;;0.20;90.17;100937.97;5112472;28;20080;-75
2022/02/14 06:40:31;;;;;;;41.25;19.13;;;;;;;0.22;90.44;100940.56;5112135;28;20031;-76
2022/02/14 06:42:57;;;;;;;35.83;19.48;;;;;;;0.29;90.43;100942.06;5111178;27;20031;-74
2022/02/14 06:45:22;;;;;;;39.08;20.45;;;;;;;0.33;90.37;100944.53;5110861;28;20056;-75
2022/02/14 06:47:48;;;;;;;39.15;18.27;;;;;;;0.30;90.42;100935.84;5112108;28;20027;-75
2022/02/14 06:50:15;;;;;;;33.15;17.27;;;;;;;0.41;90.64;100953.00;5112184;28;20023;-75
2022/02/14 06:52:40;;;;;;;30.92;17.45;;;;;;;0.40;90.27;100940.75;5112192;28;20035;-75
2022/02/14 06:55:07;;;;;;;37.22;19.52;;;;;;;0.42;89.82;100938.03;5112135;28;20042;-74
2022/02/14 06:57:32;;;;;;;36.28;19.65;;;;;;;0.48;90.02;100940.47;5111815;28;20047;-75
2022/02/14 07:00:03;;;;;;;36.85;18.52;;;;;;;0.50;89.98;100936.84;5112004;28;20019;-74
2022/02/14 07:02:28;;;;;;;37.10;19.10;;;;;;;0.52;89.77;100939.44;5110253;28;20028;-75
2022/02/14 07:04:54;;;;;;;36.67;20.42;;;;;;;0.58;89.63;100939.22;5111614;28;20040;-74
2022/02/14 07:07:20;;;;;;;35.20;19.10;;;;;;;0.57;89.64;100938.34;5111707;28;20027;-75
2022/02/14 07:09:46;;;;;;;43.83;19.38;;;;;;;0.70;89.34;100939.59;5111493;28;20016;-74
2022/02/14 07:12:12;;;;;;;35.90;19.38;;;;;;;0.69;89.84;100937.00;5110420;28;20119;-76
2022/02/14 07:14:37;;;;;;;37.55;19.77;;;;;;;0.72;89.03;100940.41;5111734;28;20098;-74
2022/02/14 07:17:03;;;;;;;33.45;17.75;;;;;;;0.83;88.06;100937.34;5111625;28;20027;-75
2022/02/14 07:19:29;;;;;;;35.03;19.05;;;;;;;0.79;88.07;100926.06;5112173;28;20028;-75
2022/02/14 07:21:54;;;;;;;36.15;17.95;;;;;;;0.91;87.95;100944.06;5112214;28;20155;-75
2022/02/14 07:24:19;;;;;;;32.67;17.35;;;;;;;0.90;87.97;100934.41;5112208;28;20036;-75
2022/02/14 07:26:45;;;;;;;36.95;19.17;;;;;;;0.94;88.17;100940.44;5110618;28;20031;-75
2022/02/14 07:29:10;;;;;;;34.45;18.25;;;;;;;0.99;88.14;100934.06;5112189;28;20118;-76
2022/02/14 07:31:36;;;;;;;31.52;17.80;;;;;;;1.06;87.78;100942.63;5110840;28;20022;-75
2022/02/14 07:34:02;;;;;;;29.17;16.13;;;;;;;1.18;87.31;100948.25;5112012;28;20099;-76
2022/02/14 07:36:28;;;;;;;30.73;17.52;;;;;;;1.20;87.14;100935.88;5112283;28;20019;-76
2022/02/14 07:38:53;;;;;;;30.25;17.10;;;;;;;1.22;86.73;100926.06;5112457;28;20078;-75
2022/02/14 07:41:20;;;;;;;33.92;18.05;;;;;;;1.33;86.93;100937.09;5111892;28;20069;-75
2022/02/14 07:43:45;;;;;;;30.02;16.60;;;;;;;1.37;86.95;100928.13;5112211;28;20058;-76
2022/02/14 07:46:11;;;;;;;34.58;18.77;;;;;;;1.36;86.98;100917.59;5112122;28;20051;-75
2022/02/14 07:48:37;;;;;;;34.28;17.60;;;;;;;1.54;86.33;100936.22;5110781;28;20498;-76
2022/02/14 07:51:03;;;;;;;29.55;17.65;;;;;;;1.56;86.67;100921.16;5110989;28;20019;-76
2022/02/14 07:53:28;;;;;;;32.53;18.33;;;;;;;1.69;86.44;100925.00;5110995;28;20517;-76
2022/02/14 07:55:54;;;;;;;31.00;18.42;;;;;;;1.71;86.67;100919.66;5112074;28;20024;-76
2022/02/14 07:58:21;;;;;;;29.73;16.88;;;;;;;1.73;86.78;100902.78;5111963;28;20057;-76
2022/02/14 08:00:46;;;;;;;30.42;17.80;;;;;;;1.81;86.66;100905.13;5112217;28;20465;-76
2022/02/14 08:03:12;;;;;;;36.75;18.60;;;;;;;1.98;86.65;100913.19;5112163;28;20074;-75
2022/02/14 08:05:37;;;;;;;36.67;19.50;;;;;;;2.09;87.02;100911.78;5112052;28;20027;-77
2022/02/14 08:08:03;;;;;;;33.17;19.02;;;;;;;2.27;86.61;100918.91;5112139;28;20046;-76
2022/02/14 08:10:28;;;;;;;39.75;19.83;;;;;;;2.47;85.13;100919.78;5112073;28;20024;-76
2022/02/14 08:12:54;;;;;;;36.08;18.95;;;;;;;2.55;84.99;100923.84;5111924;28;20064;-75
2022/02/14 08:15:20;;;;;;;31.88;19.17;;;;;;;2.56;84.71;100890.25;5111842;28;20373;-76
2022/02/14 08:17:45;;;;;;;34.17;18.60;;;;;;;2.75;84.53;100901.72;5111693;28;20019;-76
2022/02/14 08:20:11;;;;;;;34.97;18.60;;;;;;;2.83;84.32;100918.13;5111739;28;20019;-75
2022/02/14 08:22:36;;;;;;;34.63;19.08;;;;;;;2.92;84.04;100917.66;5111800;28;20067;-75
2022/02/14 08:25:02;;;;;;;38.72;21.02;;;;;;;2.98;84.21;100912.97;5112217;28;20390;-76
2022/02/14 08:27:28;;;;;;;37.83;21.77;;;;;;;3.01;83.90;100904.88;5111463;28;20094;-75
2022/02/14 08:29:54;;;;;;;37.97;21.05;;;;;;;3.09;84.45;100909.81;5111868;28;20039;-75
2022/02/14 08:32:20;;;;;;;35.30;20.27;;;;;;;3.10;84.56;100898.25;5110486;28;20016;-76
2022/02/14 08:34:45;;;;;;;33.60;21.13;;;;;;;3.27;84.54;100903.59;5112163;28;20020;-76
2022/02/14 08:37:12;;;;;;;38.45;21.08;;;;;;;3.29;84.82;100902.56;5112085;28;20028;-76
2022/02/14 08:39:40;;;;;;;36.47;21.08;;;;;;;3.33;84.76;100890.06;5114405;28;20119;-76
2022/02/14 08:42:06;;;;;;;35.15;21.30;;;;;;;3.37;84.23;100873.06;5114548;28;20044;-66
2022/02/14 08:44:32;;;;;;;36.03;21.30;;;;;;;3.51;84.47;100892.63;5113796;28;20031;-68
2022/02/14 08:46:59;;;;;;;37.25;21.45;;;;;;;3.51;84.26;100871.44;5113413;28;20023;-68
2022/02/14 08:49:25;;;;;;;33.13;20.63;;;;;;;3.66;84.34;100886.56;5113384;28;20023;-68
2022/02/14 08:51:51;;;;;;;32.35;20.00;;;;;;;3.69;84.10;100862.56;5113439;28;20028;-68
2022/02/14 08:54:17;;;;;;;35.05;20.83;;;;;;;3.87;84.12;100876.66;5111891;28;20023;-67
2022/02/14 08:56:42;;;;;;;36.05;19.83;;;;;;;3.96;83.93;100874.38;5113330;28;20108;-68
2022/02/14 08:59:08;;;;;;;31.48;19.80;;;;;;;4.03;83.82;100874.94;5113259;28;20032;-68
2022/02/14 09:01:34;;;;;;;32.83;19.40;;;;;;;4.11;83.77;100872.72;5113233;28;20024;-68
2022/02/14 09:03:59;;;;;;;34.50;19.50;;;;;;;4.17;83.63;100875.94;5113331;28;20111;-68
2022/02/14 09:06:27;;;;;;;38.88;20.77;;;;;;;4.25;83.81;100871.06;5113148;28;20027;-68
2022/02/14 09:08:53;;;;;;;31.92;19.48;;;;;;;4.26;83.62;100853.34;5113074;28;20152;-68
2022/02/14 09:11:19;;;;;;;31.90;19.67;;;;;;;4.43;83.02;100859.47;5113077;28;20032;-67
2022/02/14 09:13:45;;;;;;;36.28;19.80;;;;;;;4.49;83.00;100853.78;5112916;28;20023;-69
2022/02/14 09:16:11;;;;;;;31.63;19.90;;;;;;;4.58;82.78;100850.66;5112926;28;20031;-69
2022/02/14 09:18:37;;;;;;;35.35;19.13;;;;;;;4.72;82.01;100845.44;5111748;28;20038;-68
2022/02/14 09:21:04;;;;;;;34.65;20.40;;;;;;;4.77;81.54;100842.50;5113081;28;20027;-69
2022/02/14 09:23:30;;;;;;;36.80;20.80;;;;;;;4.75;81.35;100829.31;5111195;28;20041;-69
2022/02/14 09:25:56;;;;;;;31.98;19.48;;;;;;;5.02;80.60;100848.16;5112727;28;20477;-69
2022/02/14 09:28:22;;;;;;;36.67;20.15;;;;;;;5.07;80.34;100839.94;5112831;28;20176;-75
2022/02/14 09:30:48;;;;;;;29.88;18.30;;;;;;;5.22;79.83;100845.22;5113978;28;20090;-75
2022/02/14 09:33:14;;;;;;;35.55;21.17;;;;;;;5.28;79.57;100833.38;5112949;28;20104;-75
2022/02/14 09:35:39;;;;;;;31.55;19.52;;;;;;;5.38;79.19;100830.09;5112672;28;20124;-75
2022/02/14 09:38:06;;;;;;;30.15;19.17;;;;;;;5.45;78.72;100831.44;5114435;28;20035;-75
2022/02/14 09:40:33;;;;;;;29.58;19.05;;;;;;;5.60;78.04;100825.22;5113884;28;20027;-73
2022/02/14 09:42:59;;;;;;;30.65;18.15;;;;;;;5.72;77.53;100819.19;5112643;28;20047;-76
2022/02/14 09:45:27;;;;;;;30.17;19.45;;;;;;;5.86;76.71;100811.25;5114020;28;20038;-74
2022/02/14 09:48:03;;;;;;;32.08;19.08;;;;;;;6.03;76.33;100807.56;5113608;28;20032;-75
2022/02/14 09:50:31;;;;;;;31.90;19.33;;;;;;;6.21;74.92;100812.59;5113663;28;20028;-75
2022/02/14 09:52:57;;;;;;;30.00;20.00;;;;;;;6.38;73.71;100800.88;5112613;28;20106;-75
2022/02/14 09:55:24;;;;;;;31.13;19.15;;;;;;;6.58;73.13;100803.16;5112663;28;20020;-76
2022/02/14 09:57:50;;;;;;;30.23;19.80;;;;;;;6.89;72.45;100806.41;5113909;28;20031;-75
2022/02/14 10:00:16;;;;;;;32.58;19.45;;;;;;;7.18;71.05;100806.31;5114144;28;20474;-76
2022/02/14 10:02:42;;;;;;;31.63;19.60;;;;;;;7.56;68.62;100789.44;5114362;28;20032;-76
2022/02/14 10:05:14;;;;;;;29.65;18.30;;;;;;;8.04;66.90;100782.53;5114103;28;20110;-75
2022/02/14 10:07:42;;;;;;;27.58;18.67;;;;;;;9.12;63.78;100764.75;5113527;28;20078;-77
2022/02/14 10:10:25;;;;;;;30.55;18.52;;;;;;;10.84;57.14;100762.66;5114104;28;20042;-76
2022/02/14 10:12:58;;;;;;;26.58;17.73;;;;;;;12.21;52.65;100758.06;5114051;28;20015;-77
2022/02/14 10:15:24;;;;;;;28.27;18.20;;;;;;;13.06;50.01;100747.59;5113178;27;20031;-76
2022/02/14 10:17:59;;;;;;;26.75;17.08;;;;;;;13.50;48.56;100744.38;5112572;28;20084;-76
2022/02/14 10:20:26;;;;;;;27.13;17.85;;;;;;;13.77;47.39;100741.75;5112477;28;20034;-77
2022/02/14 10:23:03;;;;;;;23.98;18.50;;;;;;;13.96;46.64;100746.25;5113905;28;20023;-76
2022/02/14 10:25:32;;;;;;;24.60;17.85;;;;;;;13.83;46.63;100747.59;5114119;28;20019;-75
2022/02/14 10:28:17;;;;;;;27.67;18.48;;;;;;;13.49;47.31;100747.19;5114220;28;20086;-75
2022/02/14 10:31:03;;;;;;;29.02;17.67;;;;;;;13.07;47.79;100748.47;5111943;28;20131;-76
2022/02/14 10:33:48;;;;;;;28.25;19.67;;;;;;;12.61;48.93;100737.44;5113213;28;20379;-76
2022/02/14 10:36:22;;;;;;;;;;;;;;;12.21;50.57;100731.19;5112287;28;20047;-76
2022/02/14 10:38:47;;;;;;;25.65;17.85;;;;;;;11.99;50.63;100734.91;5112986;28;19915;-76
2022/02/14 10:41:13;;;;;;;28.98;19.45;;;;;;;11.71;51.67;100724.84;5111764;28;20538;-76
2022/02/14 10:43:39;;;;;;;28.10;19.27;;;;;;;11.50;52.08;100732.00;5112636;28;20015;-76
2022/02/14 10:46:04;;;;;;;28.08;18.73;;;;;;;11.29;53.20;100728.47;5114576;28;20390;-76
2022/02/14 10:48:40;;;;;;;26.40;18.77;;;;;;;11.04;53.34;100732.38;5114097;28;20023;-76
2022/02/14 10:51:06;;;;;;;29.80;19.45;;;;;;;10.80;53.83;100714.75;5112522;28;20031;-76
2022/02/14 10:53:46;;;;;;;30.55;18.10;;;;;;;10.70;54.54;100725.38;5113632;28;20139;-76
2022/02/14 10:56:14;;;;;;;28.70;18.92;;;;;;;10.61;55.33;100723.44;5113493;28;20098;-76
2022/02/14 10:58:41;;;;;;;28.13;19.73;;;;;;;10.52;55.30;100728.72;5113052;28;20023;-75
2022/02/14 11:01:11;;;;;;;27.35;19.30;;;;;;;10.42;55.26;100722.38;5111083;28;20028;-75
2022/02/14 11:03:44;;;;;;;28.13;19.77;;;;;;;10.27;55.64;100712.88;5113493;28;20442;-76
2022/02/14 11:06:11;;;;;;;26.83;18.80;;;;;;;10.23;56.14;100723.03;5113315;28;20443;-76
2022/02/14 11:08:38;;;;;;;26.88;18.80;;;;;;;10.19;56.29;100726.06;5113920;28;20019;-77
2022/02/14 11:11:05;;;;;;;23.98;18.60;;;;;;;10.14;56.54;100722.88;5113186;28;20486;-76
2022/02/14 11:13:33;;;;;;;30.48;19.27;;;;;;;10.05;57.07;100715.53;5113468;28;20077;-77